Time;durP1;ratioP1;P1;durP2;ratioP2;P2;SDS_P1;SDS_P2;PMS_P1;PMS_P2;Temp;Humidity;BMP_temperature;BMP_pressure;BME280_temperature;BME280_humidity;BME280_pressure;Samples;Min_cycle;Max_cycle;Signal;HPM_P1;HPM_P2
2022/12/02 05:00:35;;;;;;;46.23;21.97;;;6.10;99.90;;;;;;5908660;23;20384;-73
2022/12/02 05:03:02;;;;;;;48.50;22.50;;;6.10;99.90;;;;;;4945900;28;20457;-73
2022/12/02 05:05:29;;;;;;;42.70;20.87;;;6.10;99.90;;;;;;4946391;28;20965;-73
2022/12/02 05:07:56;;;;;;;48.23;22.60;;;6.10;99.90;;;;;;4946625;28;20470;-73
2022/12/02 05:10:22;;;;;;;42.90;20.40;;;6.10;99.90;;;;;;4946783;28;20462;-73
2022/12/02 05:12:49;;;;;;;40.30;19.30;;;6.20;99.90;;;;;;4945907;28;20504;-73
2022/12/02 05:15:16;;;;;;;40.63;20.33;;;6.10;99.90;;;;;;4947091;28;20457;-73
2022/12/02 05:17:44;;;;;;;49.13;21.30;;;6.10;99.90;;;;;;4950327;28;20973;-73
2022/12/02 05:20:12;;;;;;;47.10;22.57;;;6.10;99.90;;;;;;4948477;28;20962;-73
2022/12/02 05:22:39;;;;;;;39.07;20.83;;;6.10;99.90;;;;;;4949221;28;21000;-73
2022/12/02 05:25:07;;;;;;;47.03;22.00;;;6.10;99.90;;;;;;4950491;28;20507;-73
2022/12/02 05:27:33;;;;;;;37.87;20.63;;;6.10;99.90;;;;;;4950499;28;20457;-73
2022/12/02 05:30:00;;;;;;;38.07;21.00;;;6.10;99.90;;;;;;4948416;28;20469;-73
2022/12/02 05:32:27;;;;;;;37.77;20.10;;;6.10;99.90;;;;;;4949355;28;20501;-73
2022/12/02 05:34:55;;;;;;;37.80;20.43;;;6.10;99.90;;;;;;4950152;28;20454;-65
2022/12/02 05:37:22;;;;;;;43.03;21.40;;;6.10;99.90;;;;;;4949378;28;20464;-65
2022/12/02 05:39:49;;;;;;;41.07;20.00;;;6.10;99.90;;;;;;4950123;29;20465;-74
2022/12/02 05:42:16;;;;;;;36.63;19.07;;;6.20;99.90;;;;;;4948967;28;20477;-75
2022/12/02 05:44:43;;;;;;;39.60;19.80;;;6.10;99.90;;;;;;4949746;29;20457;-75
2022/12/02 05:47:12;;;;;;;37.30;19.23;;;6.10;99.90;;;;;;4949934;29;20453;-75
2022/12/02 05:49:39;;;;;;;42.20;20.33;;;6.10;99.90;;;;;;4949417;29;21184;-75
2022/12/02 05:52:20;;;;;;;44.53;19.60;;;6.20;99.90;;;;;;4948893;28;20484;-75
2022/12/02 05:54:47;;;;;;;38.50;21.70;;;6.10;99.90;;;;;;4949443;28;20453;-75
2022/12/02 05:57:14;;;;;;;43.60;20.27;;;6.20;99.90;;;;;;4949570;28;20460;-75
2022/12/02 05:59:41;;;;;;;41.60;21.20;;;6.10;99.90;;;;;;4949944;29;20468;-75
2022/12/02 06:02:23;;;;;;;37.53;21.30;;;6.20;99.90;;;;;;4948243;28;20482;-75
2022/12/02 06:04:49;;;;;;;43.93;20.60;;;6.20;99.90;;;;;;4949658;29;20464;-75
2022/12/02 06:07:18;;;;;;;40.23;21.20;;;6.10;99.90;;;;;;4949020;29;20842;-74
2022/12/02 06:09:45;;;;;;;42.27;20.57;;;6.10;99.90;;;;;;4948654;29;20461;-75
2022/12/02 06:12:16;;;;;;;48.63;20.20;;;6.10;99.90;;;;;;4948661;28;20476;-75
2022/12/02 06:14:47;;;;;;;46.13;21.60;;;6.10;99.90;;;;;;4949053;29;20457;-75
2022/12/02 06:17:16;;;;;;;49.40;22.00;;;6.20;99.90;;;;;;4949526;29;20918;-75
2022/12/02 06:19:45;;;;;;;46.60;21.93;;;6.20;99.90;;;;;;4949347;28;20454;-75
2022/12/02 06:22:17;;;;;;;43.97;22.23;;;6.20;99.90;;;;;;4948500;28;20481;-75
2022/12/02 06:24:46;;;;;;;40.87;21.37;;;6.20;99.90;;;;;;4949344;29;20430;-74
2022/12/02 06:27:14;;;;;;;42.80;22.07;;;6.10;99.90;;;;;;4948529;28;20458;-75
2022/12/02 06:29:47;;;;;;;44.67;21.40;;;6.10;99.90;;;;;;4947954;29;20470;-75
2022/12/02 06:32:19;;;;;;;47.37;22.43;;;6.10;99.90;;;;;;4948313;28;20485;-75
2022/12/02 06:34:48;;;;;;;43.67;20.87;;;6.10;99.90;;;;;;4949058;29;20508;-75
2022/12/02 06:37:18;;;;;;;43.67;21.03;;;6.10;99.90;;;;;;4949043;29;20449;-74
2022/12/02 06:39:47;;;;;;;35.87;19.20;;;6.10;99.90;;;;;;4948982;29;20441;-74
2022/12/02 06:42:21;;;;;;;36.27;20.07;;;6.10;99.90;;;;;;4948371;28;20469;-74
2022/12/02 06:45:07;;;;;;;37.67;19.83;;;6.10;99.90;;;;;;4948398;29;20465;-75
2022/12/02 06:48:03;;;;;;;35.77;18.13;;;6.10;99.90;;;;;;4948334;29;20488;-75
2022/12/02 06:50:38;;;;;;;40.00;20.30;;;6.00;99.90;;;;;;4948413;28;20460;-75
2022/12/02 06:53:33;;;;;;;41.70;19.90;;;6.00;99.90;;;;;;4947673;29;20493;-76
2022/12/02 06:56:05;;;;;;;42.73;19.50;;;6.00;99.90;;;;;;4948701;28;20449;-76
2022/12/02 06:58:35;;;;;;;36.50;20.10;;;6.00;99.90;;;;;;4948934;29;20446;-76
2022/12/02 07:01:29;;;;;;;40.00;20.53;;;6.10;99.90;;;;;;4948618;28;20526;-75
2022/12/02 07:04:20;;;;;;;41.50;20.30;;;6.00;99.90;;;;;;4934498;28;20461;-76
2022/12/02 07:06:51;;;;;;;37.73;19.47;;;6.00;99.90;;;;;;4948051;29;20449;-75
2022/12/02 07:09:21;;;;;;;37.90;18.97;;;6.00;99.90;;;;;;4948549;29;20433;-76
2022/12/02 07:11:52;;;;;;;33.23;17.90;;;6.00;99.90;;;;;;4947536;28;20478;-76
2022/12/02 07:14:28;;;;;;;39.53;18.47;;;6.00;99.90;;;;;;4948552;29;20504;-75
2022/12/02 07:16:57;;;;;;;35.67;18.50;;;6.00;99.90;;;;;;4948279;29;20544;-75
2022/12/02 07:19:29;;;;;;;35.53;17.90;;;6.00;99.90;;;;;;4947910;29;20469;-76
2022/12/02 07:21:56;;;;;;;37.70;17.40;;;5.90;99.90;;;;;;4947531;28;20501;-75
2022/12/02 07:24:23;;;;;;;29.20;15.90;;;5.90;99.90;;;;;;4947918;29;20453;-75
2022/12/02 07:26:51;;;;;;;31.93;17.20;;;6.00;99.90;;;;;;4948248;29;20469;-75
2022/12/02 07:29:27;;;;;;;36.40;17.87;;;6.00;99.90;;;;;;4947088;29;20457;-76
2022/12/02 07:31:54;;;;;;;29.63;16.70;;;6.00;99.90;;;;;;4946956;28;20487;-76
2022/12/02 07:34:21;;;;;;;31.73;17.57;;;6.00;99.90;;;;;;4947723;29;20504;-76
2022/12/02 07:36:48;;;;;;;24.80;14.80;;;6.00;99.90;;;;;;4948389;29;20463;-76
2022/12/02 07:39:14;;;;;;;24.90;14.90;;;6.00;99.90;;;;;;4947506;28;20464;-78
2022/12/02 07:41:42;;;;;;;25.97;14.80;;;6.00;99.90;;;;;;4947647;28;20481;-75
2022/12/02 07:44:10;;;;;;;28.57;15.50;;;6.00;99.90;;;;;;4947757;29;20461;-76
2022/12/02 07:46:36;;;;;;;23.87;13.40;;;6.00;99.90;;;;;;4948048;29;20461;-75
2022/12/02 07:49:03;;;;;;;23.43;13.03;;;6.00;99.90;;;;;;4948153;29;20465;-77
2022/12/02 07:51:30;;;;;;;24.20;14.50;;;6.00;99.90;;;;;;4947738;28;20488;-75
2022/12/02 07:53:57;;;;;;;21.13;12.73;;;5.90;99.90;;;;;;4947559;29;20493;-77
2022/12/02 07:56:23;;;;;;;23.43;13.37;;;5.90;99.90;;;;;;4947821;29;21055;-77
2022/12/02 07:58:50;;;;;;;21.20;12.07;;;5.90;99.90;;;;;;4947872;29;20480;-77
2022/12/02 08:01:18;;;;;;;22.50;12.20;;;5.90;99.90;;;;;;4947877;28;20489;-77
2022/12/02 08:03:45;;;;;;;21.73;12.83;;;5.90;99.90;;;;;;4947439;29;20457;-78
2022/12/02 08:06:12;;;;;;;21.77;11.30;;;5.90;99.90;;;;;;4947702;29;20464;-76
2022/12/02 08:08:39;;;;;;;22.17;12.20;;;5.90;99.90;;;;;;4947557;29;20468;-76
2022/12/02 08:11:06;;;;;;;25.33;11.40;;;5.90;99.90;;;;;;4947330;28;20477;-76
2022/12/02 08:13:33;;;;;;;20.80;12.50;;;5.90;99.90;;;;;;4946774;29;20497;-76
2022/12/02 08:15:59;;;;;;;19.87;11.53;;;5.90;99.90;;;;;;4947779;29;21143;-76
2022/12/02 08:18:28;;;;;;;22.27;13.70;;;5.90;99.90;;;;;;4948153;29;20462;-76
2022/12/02 08:20:54;;;;;;;20.73;11.43;;;5.90;99.90;;;;;;4947588;28;21332;-76
2022/12/02 08:23:21;;;;;;;17.67;11.33;;;5.90;99.90;;;;;;4947048;29;20457;-76
2022/12/02 08:25:48;;;;;;;18.80;11.47;;;5.90;99.90;;;;;;4948027;29;20456;-76
2022/12/02 08:28:15;;;;;;;17.53;11.90;;;5.80;99.90;;;;;;4947705;29;20464;-76
2022/12/02 08:30:42;;;;;;;17.93;10.30;;;5.80;99.90;;;;;;4947762;28;20989;-76
2022/12/02 08:33:09;;;;;;;18.23;11.23;;;5.80;99.90;;;;;;4946655;29;20500;-76
2022/12/02 08:35:38;;;;;;;21.23;11.43;;;5.80;99.90;;;;;;4947435;29;20476;-76
2022/12/02 08:38:06;;;;;;;21.53;11.40;;;5.80;99.90;;;;;;4946696;28;20468;-76
2022/12/02 08:40:33;;;;;;;20.67;11.00;;;5.80;99.90;;;;;;4947055;28;20628;-75
2022/12/02 08:43:00;;;;;;;20.60;10.63;;;5.80;99.90;;;;;;4946620;29;20881;-76
2022/12/02 08:45:27;;;;;;;18.43;11.20;;;5.80;99.90;;;;;;4947016;29;20464;-76
2022/12/02 08:47:54;;;;;;;18.47;10.33;;;5.80;99.90;;;;;;4946607;29;20457;-76
2022/12/02 08:50:21;;;;;;;19.80;10.30;;;5.80;99.90;;;;;;4948523;28;20953;-76
2022/12/02 08:52:49;;;;;;;21.00;10.87;;;5.80;99.90;;;;;;4949835;29;20953;-76
2022/12/02 08:55:16;;;;;;;14.67;9.87;;;5.70;99.90;;;;;;4950177;29;20493;-76
2022/12/02 08:57:43;;;;;;;13.80;9.07;;;5.70;99.90;;;;;;4951043;28;20457;-76
2022/12/02 09:00:11;;;;;;;12.83;8.50;;;5.70;99.90;;;;;;4951231;29;20457;-76
2022/12/02 09:02:37;;;;;;;13.50;8.50;;;5.70;99.90;;;;;;4949947;29;20473;-76
2022/12/02 09:05:05;;;;;;;14.20;9.20;;;5.70;99.90;;;;;;4950372;29;20449;-76
2022/12/02 09:07:32;;;;;;;11.70;7.87;;;5.70;99.90;;;;;;4950317;28;20457;-76
2022/12/02 09:10:00;;;;;;;13.40;8.30;;;5.70;99.90;;;;;;4950801;29;20461;-76
2022/12/02 09:12:27;;;;;;;12.00;7.97;;;5.70;99.90;;;;;;4949625;28;21076;-76
2022/12/02 09:14:54;;;;;;;14.77;8.07;;;5.70;99.90;;;;;;4950139;29;20493;-76
2022/12/02 09:17:21;;;;;;;14.20;8.30;;;5.70;99.90;;;;;;4950612;29;20844;-76
2022/12/02 09:19:48;;;;;;;11.50;7.20;;;5.70;99.90;;;;;;4950791;28;20460;-76
2022/12/02 09:22:14;;;;;;;13.10;7.53;;;5.70;99.90;;;;;;4949246;28;20487;-76
2022/12/02 09:24:41;;;;;;;14.40;6.80;;;5.70;99.90;;;;;;4950335;29;21204;-76
2022/12/02 09:27:09;;;;;;;16.40;8.50;;;5.70;99.90;;;;;;4950113;29;20461;-76
2022/12/02 09:29:36;;;;;;;10.03;6.97;;;5.60;99.90;;;;;;4950409;29;20468;-76
2022/12/02 09:32:03;;;;;;;16.90;9.60;;;5.70;99.90;;;;;;4949476;28;20488;-76
2022/12/02 09:34:30;;;;;;;13.80;8.47;;;5.70;99.90;;;;;;4950060;29;20490;-76
2022/12/02 09:36:57;;;;;;;11.93;7.37;;;5.70;99.90;;;;;;4950199;28;20458;-76
2022/12/02 09:39:23;;;;;;;12.87;7.43;;;5.60;99.90;;;;;;4949875;29;20812;-76
2022/12/02 09:41:50;;;;;;;9.87;7.03;;;5.60;99.90;;;;;;4949424;28;20483;-76
2022/12/02 09:44:19;;;;;;;11.37;6.63;;;5.70;99.90;;;;;;4950724;29;20460;-77
2022/12/02 09:46:46;;;;;;;12.40;7.20;;;5.70;99.90;;;;;;4950742;29;20457;-77
2022/12/02 09:49:13;;;;;;;8.63;6.27;;;5.70;99.90;;;;;;4950465;29;20958;-76
2022/12/02 09:51:40;;;;;;;11.03;7.07;;;5.70;99.90;;;;;;4949977;28;20909;-76
2022/12/02 09:54:07;;;;;;;13.00;8.40;;;5.70;99.90;;;;;;4950435;29;20497;-76
2022/12/02 09:56:35;;;;;;;10.60;6.50;;;5.70;99.90;;;;;;4950658;29;20453;-76
2022/12/02 09:59:06;;;;;;;13.50;6.90;;;5.70;99.90;;;;;;4950514;29;20466;-76
2022/12/02 10:01:35;;;;;;;17.17;9.47;;;5.70;99.90;;;;;;4949255;28;20888;-76
2022/12/02 10:04:01;;;;;;;10.13;6.30;;;5.70;99.90;;;;;;4949926;29;20456;-76
2022/12/02 10:06:29;;;;;;;10.07;6.80;;;5.70;99.90;;;;;;4950267;29;20462;-77
2022/12/02 10:08:57;;;;;;;9.23;6.53;;;5.70;99.90;;;;;;4950103;29;20463;-77
2022/12/02 10:11:27;;;;;;;12.10;7.27;;;5.70;99.90;;;;;;4949870;28;20843;-77
2022/12/02 10:13:55;;;;;;;12.90;7.47;;;5.70;99.90;;;;;;4949633;29;20493;-76
2022/12/02 10:16:22;;;;;;;11.50;7.60;;;5.70;99.90;;;;;;4950121;29;20464;-76
2022/12/02 10:18:50;;;;;;;12.60;8.17;;;5.70;99.90;;;;;;4949420;28;20461;-76
2022/12/02 10:21:17;;;;;;;13.10;7.30;;;5.70;99.90;;;;;;4949658;28;20831;-76
2022/12/02 10:23:56;;;;;;;11.40;7.87;;;5.70;99.90;;;;;;4949067;29;20449;-76
2022/12/02 10:26:23;;;;;;;11.70;7.57;;;5.70;99.90;;;;;;4949427;29;20453;-76
2022/12/02 10:29:03;;;;;;;10.77;8.17;;;5.70;99.90;;;;;;4949843;29;21259;-76
2022/12/02 10:31:30;;;;;;;16.03;8.10;;;5.70;99.90;;;;;;4949566;28;20485;-75
2022/12/02 10:34:00;;;;;;;11.40;7.47;;;5.70;99.90;;;;;;4949062;29;20528;-76
2022/12/02 10:36:31;;;;;;;11.80;9.03;;;5.70;99.90;;;;;;4949443;28;20442;-76
2022/12/02 10:39:18;;;;;;;10.70;7.63;;;5.80;99.90;;;;;;4949709;29;20461;-76
2022/12/02 10:41:45;;;;;;;13.10;8.13;;;5.70;99.90;;;;;;4948918;28;20477;-76
2022/12/02 10:44:14;;;;;;;12.57;7.30;;;5.70;99.90;;;;;;4948855;29;20449;-76
2022/12/02 10:46:41;;;;;;;11.27;7.73;;;5.70;99.90;;;;;;4949143;29;20457;-76
2022/12/02 10:49:29;;;;;;;13.83;8.00;;;5.80;99.90;;;;;;4949456;29;20461;-76
2022/12/02 10:51:58;;;;;;;10.33;6.90;;;5.70;99.90;;;;;;4947963;28;20564;-76
2022/12/02 10:54:28;;;;;;;12.30;7.53;;;5.80;99.90;;;;;;4949025;29;20508;-78
2022/12/02 10:56:55;;;;;;;12.87;8.40;;;5.80;99.90;;;;;;4949338;29;20496;-76
2022/12/02 10:59:23;;;;;;;13.00;7.53;;;5.80;99.90;;;;;;4949186;29;20457;-76
2022/12/02 11:01:50;;;;;;;12.17;7.00;;;5.80;99.90;;;;;;4948162;28;20489;-76
2022/12/02 11:04:17;;;;;;;13.00;7.80;;;5.80;99.90;;;;;;4948718;29;20458;-76
2022/12/02 11:06:46;;;;;;;12.00;7.57;;;5.70;99.90;;;;;;4948732;29;20832;-76
2022/12/02 11:09:18;;;;;;;13.00;8.50;;;5.70;99.90;;;;;;4948748;28;20826;-76
2022/12/02 11:11:45;;;;;;;14.47;8.53;;;5.80;99.90;;;;;;4947936;28;20885;-76
2022/12/02 11:14:14;;;;;;;14.20;9.30;;;5.80;99.90;;;;;;4948519;28;20581;-76
2022/12/02 11:17:05;;;;;;;12.97;8.23;;;5.80;99.90;;;;;;4948564;29;20469;-76
2022/12/02 11:19:49;;;;;;;11.97;8.50;;;5.80;99.90;;;;;;4948444;28;20465;-76
2022/12/02 11:23:05;;;;;;;12.93;7.97;;;5.70;99.90;;;;;;4948030;28;20492;-75
2022/12/02 11:25:51;;;;;;;13.13;8.67;;;5.70;99.90;;;;;;4948068;28;20509;-76
2022/12/02 11:29:05;;;;;;;12.80;9.07;;;5.70;99.90;;;;;;4948671;29;21194;-75
2022/12/02 11:31:32;;;;;;;14.60;10.40;;;5.70;99.90;;;;;;4948138;28;20525;-76
2022/12/02 11:34:21;;;;;;;13.57;8.60;;;5.70;99.90;;;;;;4948142;29;20516;-76
2022/12/02 11:37:26;;;;;;;11.73;8.20;;;5.70;99.90;;;;;;4948603;28;20468;-75
2022/12/02 11:39:55;;;;;;;11.80;8.43;;;5.70;99.90;;;;;;4948406;29;20461;-75
2022/12/02 11:42:24;;;;;;;14.03;8.63;;;5.80;99.90;;;;;;4948016;28;20477;-75
2022/12/02 11:44:52;;;;;;;14.23;9.50;;;5.80;99.90;;;;;;4948594;28;20489;-75
2022/12/02 11:47:25;;;;;;;15.83;8.53;;;5.80;99.90;;;;;;4948348;28;20720;-76
2022/12/02 11:49:53;;;;;;;11.87;8.07;;;5.80;99.90;;;;;;4948435;29;20929;-75
2022/12/02 11:52:23;;;;;;;12.57;8.40;;;5.90;99.90;;;;;;4945309;28;20473;-75
2022/12/02 11:55:06;;;;;;;14.20;9.07;;;5.90;99.90;;;;;;4947205;28;20493;-74
2022/12/02 11:57:46;;;;;;;12.50;8.07;;;5.90;99.90;;;;;;4944834;28;20472;-75
2022/12/02 12:00:28;;;;;;;15.40;9.17;;;5.90;99.90;;;;;;4946932;28;20512;-75
2022/12/02 12:03:12;;;;;;;14.03;9.50;;;5.80;99.90;;;;;;4946716;29;20442;-75
2022/12/02 12:05:39;;;;;;;15.00;9.80;;;5.80;99.90;;;;;;4947001;29;20834;-75
2022/12/02 12:08:06;;;;;;;16.00;9.60;;;5.80;99.90;;;;;;4947174;29;20457;-75
2022/12/02 12:10:35;;;;;;;14.73;9.27;;;5.80;99.90;;;;;;4947038;28;20481;-75
2022/12/02 12:13:21;;;;;;;17.33;9.70;;;5.80;99.90;;;;;;4945753;29;20972;-75
2022/12/02 12:15:53;;;;;;;13.00;8.27;;;5.80;99.90;;;;;;4946487;29;20501;-75
2022/12/02 12:18:40;;;;;;;14.47;9.30;;;5.80;99.90;;;;;;4946927;29;20449;-75
2022/12/02 12:21:08;;;;;;;12.17;8.70;;;5.90;99.90;;;;;;4946840;28;20473;-75
2022/12/02 12:23:37;;;;;;;14.57;9.57;;;5.90;99.90;;;;;;4945742;29;20465;-75
2022/12/02 12:26:05;;;;;;;16.60;10.73;;;5.90;99.90;;;;;;4949581;28;20972;-74
2022/12/02 12:28:35;;;;;;;16.70;9.03;;;5.90;99.90;;;;;;4950960;29;20457;-75
2022/12/02 12:31:04;;;;;;;14.50;10.03;;;5.90;99.90;;;;;;4950855;28;20985;-75
2022/12/02 12:33:31;;;;;;;15.03;10.00;;;5.90;99.90;;;;;;4950665;29;20459;-75
2022/12/02 12:35:59;;;;;;;19.80;10.90;;;5.90;99.90;;;;;;4950355;29;21017;-75
2022/12/02 12:38:27;;;;;;;18.77;10.00;;;6.00;99.90;;;;;;4950976;29;20468;-75
2022/12/02 12:40:54;;;;;;;13.90;9.43;;;6.00;99.90;;;;;;4951397;28;20490;-75
2022/12/02 12:43:21;;;;;;;16.57;9.97;;;5.90;99.90;;;;;;4951135;29;20556;-76
2022/12/02 12:45:49;;;;;;;14.70;10.83;;;5.90;99.90;;;;;;4950469;29;20476;-75
2022/12/02 12:48:16;;;;;;;19.03;9.93;;;5.90;99.90;;;;;;4949526;28;20635;-76
2022/12/02 12:50:43;;;;;;;18.20;10.53;;;6.00;99.90;;;;;;4949342;28;20485;-76
2022/12/02 12:53:10;;;;;;;19.73;11.70;;;6.00;99.90;;;;;;4949127;29;20468;-75
2022/12/02 12:55:36;;;;;;;20.17;11.90;;;6.00;99.90;;;;;;4949782;29;20497;-75
2022/12/02 12:58:03;;;;;;;18.73;11.90;;;6.00;99.90;;;;;;4950117;29;20485;-75
2022/12/02 13:00:30;;;;;;;20.97;12.20;;;5.90;99.90;;;;;;4949987;28;20454;-75
2022/12/02 13:02:58;;;;;;;18.07;11.87;;;5.90;99.90;;;;;;4950128;29;20834;-75
2022/12/02 13:05:25;;;;;;;23.87;14.60;;;5.90;99.90;;;;;;4950468;29;20460;-76
2022/12/02 13:07:52;;;;;;;24.90;14.47;;;5.90;99.90;;;;;;4950149;29;20961;-75
2022/12/02 13:10:20;;;;;;;22.93;13.00;;;5.90;99.90;;;;;;4951081;28;20463;-75
2022/12/02 13:12:47;;;;;;;24.43;13.67;;;5.90;99.90;;;;;;4950245;29;20453;-75
2022/12/02 13:15:13;;;;;;;24.33;13.53;;;5.90;99.90;;;;;;4950911;28;20501;-75
2022/12/02 13:17:40;;;;;;;25.73;14.70;;;5.90;99.90;;;;;;4950915;29;21389;-76
2022/12/02 13:20:10;;;;;;;26.77;15.37;;;5.90;99.90;;;;;;4951418;29;20851;-75
2022/12/02 13:22:36;;;;;;;26.37;15.67;;;6.00;99.90;;;;;;4950655;28;20473;-75
2022/12/02 13:25:04;;;;;;;23.47;13.23;;;5.90;99.90;;;;;;4951033;29;20818;-75
2022/12/02 13:27:31;;;;;;;24.80;14.30;;;6.00;99.90;;;;;;4951021;29;20465;-74
2022/12/02 13:29:57;;;;;;;25.40;15.60;;;5.90;99.90;;;;;;4950670;29;20457;-74
2022/12/02 13:32:24;;;;;;;22.30;12.70;;;5.90;99.90;;;;;;4950288;28;20898;-75
2022/12/02 13:34:51;;;;;;;26.67;15.10;;;5.90;99.90;;;;;;4950998;29;20504;-75
2022/12/02 13:37:19;;;;;;;29.87;14.00;;;5.90;99.90;;;;;;4949760;28;20461;-75
2022/12/02 13:39:46;;;;;;;29.83;14.23;;;5.90;99.90;;;;;;4951139;29;20461;-75
2022/12/02 13:42:13;;;;;;;26.17;12.90;;;5.90;99.90;;;;;;4950039;28;20857;-75
2022/12/02 13:44:40;;;;;;;27.37;14.33;;;5.90;99.90;;;;;;4950504;29;20458;-75
2022/12/02 13:47:06;;;;;;;25.87;14.13;;;5.90;99.90;;;;;;4950855;29;20464;-75
2022/12/02 13:49:34;;;;;;;24.07;14.17;;;5.90;99.90;;;;;;4950651;29;20461;-75
2022/12/02 13:52:00;;;;;;;21.43;12.97;;;5.80;99.90;;;;;;4949800;28;20469;-75
2022/12/02 13:54:28;;;;;;;22.57;13.50;;;5.80;99.90;;;;;;4950386;29;20462;-75
2022/12/02 13:56:55;;;;;;;18.60;12.17;;;5.80;99.90;;;;;;4950435;29;20453;-75
2022/12/02 13:59:22;;;;;;;22.50;12.90;;;5.80;99.90;;;;;;4950009;29;20446;-75
2022/12/02 14:01:49;;;;;;;25.03;13.07;;;5.80;99.90;;;;;;4949555;28;20485;-76
2022/12/02 14:04:16;;;;;;;21.80;13.47;;;5.80;99.90;;;;;;4950105;28;20457;-76
2022/12/02 14:06:43;;;;;;;21.00;12.80;;;5.80;99.90;;;;;;4950292;29;20466;-75
2022/12/02 14:09:10;;;;;;;18.50;10.97;;;5.80;99.90;;;;;;4950314;29;20458;-75
2022/12/02 14:11:39;;;;;;;19.50;11.00;;;5.80;99.90;;;;;;4949277;28;20485;-75
2022/12/02 14:14:06;;;;;;;20.23;12.40;;;5.80;99.90;;;;;;4949499;29;20520;-75
2022/12/02 14:16:32;;;;;;;21.20;12.17;;;5.80;99.90;;;;;;4950068;29;21200;-76
2022/12/02 14:18:59;;;;;;;20.87;11.87;;;5.80;99.90;;;;;;4950112;29;20504;-75
2022/12/02 14:21:26;;;;;;;22.70;13.33;;;5.80;99.90;;;;;;4949962;28;20481;-75
2022/12/02 14:23:53;;;;;;;23.07;15.13;;;5.70;99.90;;;;;;4948976;29;21592;-75
2022/12/02 14:26:21;;;;;;;25.17;14.47;;;5.70;99.90;;;;;;4949606;29;20453;-75
2022/12/02 14:28:49;;;;;;;23.50;13.67;;;5.80;99.90;;;;;;4949450;29;20464;-75
2022/12/02 14:31:16;;;;;;;19.43;13.20;;;5.70;99.90;;;;;;4949736;28;21000;-74
2022/12/02 14:33:42;;;;;;;19.03;12.20;;;5.70;99.90;;;;;;4948889;29;20868;-75
2022/12/02 14:36:09;;;;;;;19.20;11.07;;;5.70;99.90;;;;;;4949699;29;20855;-74
2022/12/02 14:38:36;;;;;;;19.60;12.10;;;5.70;99.90;;;;;;4949459;29;20457;-75
2022/12/02 14:41:03;;;;;;;24.67;12.10;;;5.70;99.90;;;;;;4948118;28;20485;-75
2022/12/02 14:43:30;;;;;;;18.50;12.10;;;5.70;99.90;;;;;;4947260;29;20977;-75
2022/12/02 14:45:58;;;;;;;19.80;11.47;;;5.70;99.90;;;;;;4948621;29;20973;-75
2022/12/02 14:48:25;;;;;;;21.60;11.93;;;5.70;99.90;;;;;;4947155;28;20464;-75
2022/12/02 14:50:53;;;;;;;15.77;10.20;;;5.60;99.90;;;;;;4948001;28;20485;-75
2022/12/02 14:53:22;;;;;;;15.37;10.20;;;5.60;99.90;;;;;;4947657;29;20830;-75
2022/12/02 14:55:49;;;;;;;19.20;11.60;;;5.60;99.90;;;;;;4948129;29;20505;-75
2022/12/02 14:58:16;;;;;;;21.07;12.87;;;5.60;99.90;;;;;;4948229;29;20457;-75
2022/12/02 15:00:43;;;;;;;17.50;10.53;;;5.60;99.90;;;;;;4947803;28;20485;-75
2022/12/02 15:03:11;;;;;;;15.50;9.80;;;5.60;99.90;;;;;;4947725;29;20773;-75
2022/12/02 15:05:37;;;;;;;15.00;9.33;;;5.60;99.90;;;;;;4947957;29;20453;-75
2022/12/02 15:08:05;;;;;;;15.43;9.90;;;5.60;99.90;;;;;;4947934;29;20480;-75
2022/12/02 15:10:32;;;;;;;13.10;9.00;;;5.60;99.90;;;;;;4947854;28;20544;-75
2022/12/02 15:12:58;;;;;;;16.87;10.47;;;5.60;99.90;;;;;;4947380;29;20619;-75
2022/12/02 15:15:25;;;;;;;16.40;10.37;;;5.60;99.90;;;;;;4947846;29;21010;-75
2022/12/02 15:17:52;;;;;;;15.60;9.83;;;5.60;99.90;;;;;;4947793;29;20460;-75
2022/12/02 15:20:22;;;;;;;22.70;13.40;;;5.60;99.90;;;;;;4947402;28;20480;-75
2022/12/02 15:22:49;;;;;;;27.30;15.60;;;5.60;99.90;;;;;;4946925;28;20587;-75
2022/12/02 15:25:16;;;;;;;25.63;13.67;;;5.60;99.90;;;;;;4947782;29;20462;-75
2022/12/02 15:27:43;;;;;;;15.77;11.27;;;5.60;99.90;;;;;;4948250;29;20457;-75
2022/12/02 15:30:11;;;;;;;17.07;11.00;;;5.60;99.90;;;;;;4948211;29;20457;-75
2022/12/02 15:32:38;;;;;;;16.17;9.60;;;5.60;99.90;;;;;;4947716;29;21180;-75
2022/12/02 15:35:06;;;;;;;14.13;8.60;;;5.60;99.90;;;;;;4948098;29;20465;-76
2022/12/02 15:37:35;;;;;;;13.40;8.93;;;5.60;99.90;;;;;;4948173;28;20456;-75
2022/12/02 15:40:01;;;;;;;14.53;9.23;;;5.60;99.90;;;;;;4946728;29;20465;-75
2022/12/02 15:42:28;;;;;;;13.40;8.20;;;5.60;99.90;;;;;;4947588;28;20484;-75
2022/12/02 15:44:55;;;;;;;13.07;9.30;;;5.60;99.90;;;;;;4948118;29;20453;-75
2022/12/02 15:47:22;;;;;;;14.27;9.43;;;5.60;99.90;;;;;;4948000;29;20980;-75
2022/12/02 15:49:49;;;;;;;15.27;10.20;;;5.60;99.90;;;;;;4946916;29;20460;-75
2022/12/02 15:52:15;;;;;;;10.63;7.80;;;5.60;99.90;;;;;;4946396;28;20485;-75
2022/12/02 15:54:44;;;;;;;12.30;8.10;;;5.60;99.90;;;;;;4947302;29;20464;-75
2022/12/02 15:57:10;;;;;;;13.90;9.17;;;5.60;99.90;;;;;;4947482;28;20501;-75
2022/12/02 15:59:37;;;;;;;12.20;8.10;;;5.60;99.90;;;;;;4946872;28;20461;-75
2022/12/02 16:02:04;;;;;;;12.30;8.60;;;5.60;99.90;;;;;;4946689;28;21418;-76
2022/12/02 16:04:31;;;;;;;12.10;7.73;;;5.60;99.90;;;;;;4947774;29;20844;-75
2022/12/02 16:06:58;;;;;;;12.63;8.50;;;5.60;99.90;;;;;;4948107;29;20695;-75
2022/12/02 16:09:25;;;;;;;12.50;8.23;;;5.60;99.90;;;;;;4948150;29;20469;-76
2022/12/02 16:11:53;;;;;;;12.10;8.20;;;5.60;99.90;;;;;;4947437;28;20485;-76
2022/12/02 16:14:20;;;;;;;15.37;9.07;;;5.60;99.90;;;;;;4947951;29;20453;-76
2022/12/02 16:16:46;;;;;;;16.03;9.50;;;5.60;99.90;;;;;;4947646;29;20497;-76
2022/12/02 16:19:13;;;;;;;13.50;8.90;;;5.60;99.90;;;;;;4947791;29;20453;-76
2022/12/02 16:21:40;;;;;;;13.13;8.17;;;5.60;99.90;;;;;;4947479;28;20484;-76
2022/12/02 16:24:07;;;;;;;11.63;8.10;;;5.60;99.90;;;;;;4947705;29;20458;-76
2022/12/02 16:26:34;;;;;;;15.80;9.10;;;5.60;99.90;;;;;;4947962;29;20480;-76
2022/12/02 16:29:02;;;;;;;13.80;8.93;;;5.60;99.90;;;;;;4947619;29;20469;-76
2022/12/02 16:31:29;;;;;;;13.00;8.93;;;5.60;99.90;;;;;;4947583;28;20480;-76
2022/12/02 16:33:55;;;;;;;15.13;9.07;;;5.60;99.90;;;;;;4947172;29;20453;-68
2022/12/02 16:36:22;;;;;;;14.27;8.60;;;5.60;99.90;;;;;;4947248;29;20496;-68
2022/12/02 16:38:49;;;;;;;13.10;8.80;;;5.60;99.90;;;;;;4947407;29;20462;-69
2022/12/02 16:41:16;;;;;;;14.33;9.73;;;5.50;99.90;;;;;;4947466;28;20480;-68
2022/12/02 16:43:42;;;;;;;16.73;10.10;;;5.50;99.90;;;;;;4946289;29;20498;-69
2022/12/02 16:46:11;;;;;;;14.73;9.60;;;5.50;99.90;;;;;;4945648;29;20457;-76
2022/12/02 16:48:37;;;;;;;17.30;10.17;;;5.50;99.90;;;;;;4946485;29;21186;-76
2022/12/02 16:51:04;;;;;;;17.27;10.85;;;5.60;99.90;;;;;;4946014;28;20436;-76
2022/12/02 16:53:31;;;;;;;13.57;9.30;;;5.60;99.90;;;;;;4945551;29;20217;-76
2022/12/02 16:55:58;;;;;;;14.97;9.83;;;5.60;99.90;;;;;;4946569;29;21060;-76
2022/12/02 16:58:24;;;;;;;15.43;9.67;;;5.60;99.90;;;;;;4946327;29;20481;-76
2022/12/02 17:00:51;;;;;;;14.50;9.53;;;5.60;99.90;;;;;;4946296;28;20493;-76
2022/12/02 17:03:19;;;;;;;17.20;10.40;;;5.60;99.90;;;;;;4946782;29;20469;-77
2022/12/02 17:05:48;;;;;;;13.47;9.33;;;5.60;99.90;;;;;;4948477;29;20449;-76
2022/12/02 17:08:15;;;;;;;20.57;12.07;;;5.60;99.90;;;;;;4947058;29;20466;-76
2022/12/02 17:10:41;;;;;;;17.63;9.90;;;5.60;99.90;;;;;;4947839;28;20473;-77
2022/12/02 17:13:10;;;;;;;13.13;10.10;;;5.60;99.90;;;;;;4949782;29;20475;-77
2022/12/02 17:15:39;;;;;;;15.50;10.33;;;5.60;99.90;;;;;;4951576;29;20942;-77
2022/12/02 17:18:08;;;;;;;16.83;11.00;;;5.60;99.90;;;;;;4951440;29;20961;-77
2022/12/02 17:20:37;;;;;;;24.17;13.63;;;5.60;99.90;;;;;;4950222;28;20492;-77
2022/12/02 17:23:04;;;;;;;21.17;13.37;;;5.60;99.90;;;;;;4949696;29;20465;-76
2022/12/02 17:25:33;;;;;;;25.10;15.77;;;5.70;99.90;;;;;;4950279;29;20453;-77
2022/12/02 17:27:59;;;;;;;31.53;18.47;;;5.60;99.90;;;;;;4949857;29;20472;-77
2022/12/02 17:30:26;;;;;;;26.60;15.30;;;5.60;99.90;;;;;;4950608;28;20453;-77
2022/12/02 17:32:55;;;;;;;28.20;14.97;;;5.60;99.90;;;;;;4951237;29;20453;-76
2022/12/02 17:35:24;;;;;;;32.73;17.03;;;5.60;99.90;;;;;;4951524;29;20553;-78
2022/12/02 17:37:55;;;;;;;24.67;14.30;;;5.60;99.90;;;;;;4951253;29;20956;-77
2022/12/02 17:40:23;;;;;;;24.13;14.43;;;5.60;99.90;;;;;;4950301;28;20453;-77
2022/12/02 17:42:52;;;;;;;24.13;14.53;;;5.60;99.90;;;;;;4950114;29;20556;-77
2022/12/02 17:45:19;;;;;;;21.17;12.70;;;5.50;99.90;;;;;;4950482;29;20457;-76
2022/12/02 17:50:34;;;;;;;30.93;16.40;;;5.50;99.90;;;;;;4949189;28;20473;-77
2022/12/02 17:53:03;;;;;;;15.53;9.90;;;5.50;99.90;;;;;;4950109;29;20457;-77